Time;durP1;ratioP1;P1;durP2;ratioP2;P2;SDS_P1;SDS_P2;PMS_P1;PMS_P2;Temp;Humidity;BMP_temperature;BMP_pressure;BME280_temperature;BME280_humidity;BME280_pressure;Samples;Min_cycle;Max_cycle;Signal;HPM_P1;HPM_P2
2022/10/25 00:00:11;;;;;;;723.83;666.67;;;;;;;16.36;71.64;100761.66;697867;28;46306;-62
2022/10/25 00:00:38;;;;;;;716.95;659.88;;;;;;;16.36;71.56;100764.38;697199;28;60738;-62
2022/10/25 00:00:59;;;;;;;730.15;672.88;;;;;;;16.36;71.44;100764.38;696288;28;91932;-62
2022/10/25 00:01:23;;;;;;;717.63;660.65;;;;;;;16.34;71.54;100761.88;698290;28;24632;-62
2022/10/25 00:01:46;;;;;;;726.75;669.38;;;;;;;16.34;71.57;100767.31;697092;28;67165;-62
2022/10/25 00:02:12;;;;;;;687.83;631.60;;;;;;;16.34;71.66;100763.75;696279;28;90761;-63
2022/10/25 00:02:35;;;;;;;710.45;653.50;;;;;;;16.34;71.66;100758.31;694508;28;136405;-63
2022/10/25 00:02:56;;;;;;;701.75;645.00;;;;;;;16.34;71.49;100761.03;697816;28;46105;-63
2022/10/25 00:03:18;;;;;;;716.88;659.80;;;;;;;16.34;71.58;100766.50;697834;28;46268;-63
2022/10/25 00:03:39;;;;;;;708.85;652.05;;;;;;;16.34;71.77;100761.03;697295;28;46253;-63
2022/10/25 00:04:01;;;;;;;725.17;667.97;;;;;;;16.33;71.54;100759.34;698355;28;22190;-62
2022/10/25 00:04:22;;;;;;;719.67;662.55;;;;;;;16.33;71.70;100762.94;698529;28;21527;-62
2022/10/25 00:04:43;;;;;;;699.03;642.53;;;;;;;16.33;71.68;100764.81;698687;28;22364;-62
2022/10/25 00:05:07;;;;;;;691.17;634.95;;;;;;;16.32;71.72;100760.44;697211;28;45235;-62
2022/10/25 00:05:28;;;;;;;741.05;683.58;;;;;;;16.32;71.69;100769.44;696536;28;69397;-63
2022/10/25 00:05:49;;;;;;;687.63;631.38;;;;;;;16.32;71.63;100761.25;697622;28;46415;-63
2022/10/25 00:06:11;;;;;;;742.60;685.15;;;;;;;16.32;71.70;100763.97;698403;28;23477;-62
2022/10/25 00:06:33;;;;;;;711.97;655.03;;;;;;;16.33;71.85;100762.09;698224;28;23530;-62
2022/10/25 00:06:54;;;;;;;736.75;679.17;;;;;;;16.33;71.77;100765.66;696327;28;69234;-63
2022/10/25 00:07:15;;;;;;;720.25;662.97;;;;;;;16.32;71.78;100758.53;698418;28;22388;-62
2022/10/25 00:07:36;;;;;;;722.42;665.25;;;;;;;16.32;71.89;100763.16;698517;28;21537;-62
2022/10/25 00:07:58;;;;;;;709.85;653.00;;;;;;;16.32;71.51;100760.44;698603;28;21295;-62
2022/10/25 00:08:20;;;;;;;714.83;657.83;;;;;;;16.30;71.71;100757.91;697560;28;46308;-63
2022/10/25 00:08:41;;;;;;;708.13;651.28;;;;;;;16.32;71.58;100757.69;698050;28;22437;-62
2022/10/25 00:09:03;;;;;;;714.38;657.35;;;;;;;16.31;71.68;100756.03;698611;28;22363;-63
2022/10/25 00:09:24;;;;;;;698.22;641.70;;;;;;;16.30;71.61;100757.06;698875;28;9444;-63
2022/10/25 00:09:45;;;;;;;692.40;636.00;;;;;;;16.29;71.64;100760.84;698380;28;22348;-61
2022/10/25 00:10:07;;;;;;;686.83;630.47;;;;;;;16.28;71.93;100760.00;698647;28;23927;-63
2022/10/25 00:10:29;;;;;;;709.67;652.85;;;;;;;16.28;71.66;100760.00;697892;28;45238;-62
2022/10/25 00:10:51;;;;;;;732.42;675.08;;;;;;;16.29;71.92;100752.69;697897;28;44389;-62
2022/10/25 00:11:17;;;;;;;692.88;636.33;;;;;;;16.28;71.96;100754.53;697612;28;45262;-62
2022/10/25 00:11:38;;;;;;;708.53;651.70;;;;;;;16.28;71.72;100760.00;694509;28;138079;-62
2022/10/25 00:12:00;;;;;;;722.10;665.00;;;;;;;16.27;71.83;100752.91;698466;28;22387;-62
2022/10/25 00:12:22;;;;;;;706.53;649.72;;;;;;;16.29;71.90;100753.50;698368;28;23524;-63
2022/10/25 00:12:44;;;;;;;675.63;619.55;;;;;;;16.29;72.05;100749.94;697688;28;44434;-62
2022/10/25 00:13:05;;;;;;;720.88;663.83;;;;;;;16.30;71.90;100755.19;697075;28;69237;-63
2022/10/25 00:13:26;;;;;;;728.85;671.47;;;;;;;16.30;72.05;100755.19;698636;28;21513;-63
2022/10/25 00:13:48;;;;;;;701.92;645.22;;;;;;;16.30;71.75;100754.34;697898;28;19886;-62
2022/10/25 00:14:15;;;;;;;728.17;670.88;;;;;;;16.30;71.96;100755.19;697494;28;45258;-63
2022/10/25 00:14:36;;;;;;;705.30;648.55;;;;;;;16.30;71.93;100755.19;694254;28;137771;-63
2022/10/25 00:14:59;;;;;;;716.03;659.10;;;;;;;16.31;71.70;100758.75;698289;28;22412;-62
2022/10/25 00:15:21;;;;;;;695.83;639.33;;;;;;;16.32;71.85;100755.81;696611;28;68352;-62
2022/10/25 00:15:43;;;;;;;736.05;678.53;;;;;;;16.32;71.90;100752.25;697654;28;46409;-62
2022/10/25 00:16:05;;;;;;;693.08;636.65;;;;;;;16.31;71.73;100748.66;697612;28;47182;-63
2022/10/25 00:16:27;;;;;;;731.42;674.03;;;;;;;16.32;71.81;100753.06;697633;28;46285;-62
2022/10/25 00:16:50;;;;;;;738.05;680.45;;;;;;;16.33;71.78;100754.75;697670;28;44367;-62
2022/10/25 00:17:12;;;;;;;712.92;655.78;;;;;;;16.34;71.63;100752.88;696366;28;68400;-63
2022/10/25 00:17:33;;;;;;;711.33;654.50;;;;;;;16.33;71.67;100754.75;697607;28;46309;-62
2022/10/25 00:17:54;;;;;;;696.88;640.45;;;;;;;16.33;71.85;100752.03;698403;28;21536;-62
2022/10/25 00:18:15;;;;;;;726.50;669.50;;;;;;;16.33;71.79;100753.91;698150;28;23413;-62
2022/10/25 00:18:36;;;;;;;713.47;656.58;;;;;;;16.33;71.69;100751.19;696247;28;22121;-63
2022/10/25 00:18:58;;;;;;;686.60;630.38;;;;;;;16.33;71.76;100753.91;698399;28;23470;-63
2022/10/25 00:19:19;;;;;;;698.00;641.55;;;;;;;16.32;71.54;100750.34;697870;28;46425;-62
2022/10/25 00:19:41;;;;;;;729.67;672.33;;;;;;;16.32;71.67;100749.53;700343;28;47178;-63
2022/10/25 00:20:02;;;;;;;694.17;637.72;;;;;;;16.32;71.79;100754.97;701063;28;21528;-62
2022/10/25 00:20:28;;;;;;;705.38;648.58;;;;;;;16.32;71.56;100752.25;700545;28;38152;-62
2022/10/25 00:20:49;;;;;;;672.33;616.30;;;;;;;16.31;71.57;100754.13;700469;28;46379;-63
2022/10/25 00:21:10;;;;;;;745.55;687.85;;;;;;;16.31;71.61;100750.56;701295;28;22396;-62
2022/10/25 00:21:31;;;;;;;711.50;654.55;;;;;;;16.31;71.90;100747.84;701243;28;23469;-62
2022/10/25 00:21:53;;;;;;;702.90;646.20;;;;;;;16.31;71.70;100747.84;700665;28;44380;-61
2022/10/25 00:22:14;;;;;;;712.25;655.35;;;;;;;16.31;71.97;100750.56;700421;28;45244;-63
2022/10/25 00:22:36;;;;;;;717.03;659.88;;;;;;;16.29;71.65;100745.34;701213;28;22399;-62
2022/10/25 00:22:57;;;;;;;722.17;664.97;;;;;;;16.32;71.96;100746.81;701341;28;23456;-63
2022/10/25 00:23:19;;;;;;;715.28;658.20;;;;;;;16.31;71.78;100751.41;701152;28;23402;-62
2022/10/25 00:23:42;;;;;;;730.60;673.08;;;;;;;16.33;71.97;100754.75;699181;28;14957;-62
2022/10/25 00:24:03;;;;;;;706.58;649.78;;;;;;;16.34;71.85;100750.13;698588;28;21288;-62
2022/10/25 00:24:26;;;;;;;695.08;638.55;;;;;;;16.33;71.66;100748.47;697449;28;46387;-62
2022/10/25 00:24:47;;;;;;;711.60;654.65;;;;;;;16.32;71.56;100750.34;697703;28;46383;-62
2022/10/25 00:25:08;;;;;;;707.70;650.80;;;;;;;16.32;71.80;100749.53;696336;28;21537;-62
2022/10/25 00:25:30;;;;;;;702.03;645.30;;;;;;;16.31;71.62;100748.66;697690;28;46300;-62
2022/10/25 00:26:00;;;;;;;722.70;665.60;;;;;;;16.31;71.79;100761.47;698645;28;22397;-62
2022/10/25 00:26:22;;;;;;;700.08;643.33;;;;;;;16.30;71.64;100754.34;693872;28;138712;-63
2022/10/25 00:26:43;;;;;;;719.75;662.63;;;;;;;16.30;71.71;100748.88;698595;28;23434;-62
2022/10/25 00:27:05;;;;;;;718.50;661.20;;;;;;;16.30;71.80;100757.06;697078;28;46295;-62
2022/10/25 00:27:27;;;;;;;715.03;657.97;;;;;;;16.29;71.86;100756.22;697551;28;43967;-63
2022/10/25 00:27:48;;;;;;;717.80;660.75;;;;;;;16.29;71.82;100755.41;698522;28;21408;-63
2022/10/25 00:28:09;;;;;;;705.80;649.08;;;;;;;16.28;72.00;100759.16;698431;28;22401;-63
2022/10/25 00:28:30;;;;;;;710.70;653.83;;;;;;;16.29;71.94;100752.69;696950;28;45263;-62
2022/10/25 00:28:54;;;;;;;727.40;670.05;;;;;;;16.29;72.11;100756.22;698257;28;22373;-63
2022/10/25 00:29:16;;;;;;;698.85;642.30;;;;;;;16.28;71.92;100753.72;698583;28;14342;-62
2022/10/25 00:29:37;;;;;;;720.63;663.65;;;;;;;16.27;71.94;100754.75;697507;28;45230;-63
2022/10/25 00:29:59;;;;;;;711.90;655.20;;;;;;;16.28;71.96;100753.72;698388;28;23360;-62
2022/10/25 00:30:20;;;;;;;724.83;667.78;;;;;;;16.27;71.96;100757.47;697401;28;44053;-63
2022/10/25 00:30:41;;;;;;;705.33;648.63;;;;;;;16.27;71.76;100762.94;697543;28;44388;-63
2022/10/25 00:31:05;;;;;;;727.63;670.38;;;;;;;16.27;71.94;100757.47;698543;28;22375;-62
2022/10/25 00:31:30;;;;;;;701.97;645.28;;;;;;;16.27;71.94;100754.75;697196;28;59207;-62
2022/10/25 00:31:53;;;;;;;733.05;675.72;;;;;;;16.25;71.89;100754.16;697753;28;46319;-62
2022/10/25 00:32:14;;;;;;;710.55;653.78;;;;;;;16.27;72.00;100752.03;696950;28;69401;-62
2022/10/25 00:32:35;;;;;;;707.92;651.08;;;;;;;16.25;71.85;100760.44;697930;28;23263;-62
2022/10/25 00:32:56;;;;;;;713.75;656.75;;;;;;;16.24;71.93;100758.78;698592;28;23425;-62
2022/10/25 00:33:18;;;;;;;742.88;685.15;;;;;;;16.26;71.95;100755.84;698594;28;21486;-62
2022/10/25 00:33:41;;;;;;;702.58;645.97;;;;;;;16.25;72.16;100760.44;696819;28;45220;-62
2022/10/25 00:34:02;;;;;;;712.78;655.88;;;;;;;16.26;72.07;100761.28;697697;28;44211;-62
2022/10/25 00:34:23;;;;;;;707.95;651.13;;;;;;;16.25;71.91;100763.16;697648;28;46426;-63
2022/10/25 00:34:45;;;;;;;714.67;657.65;;;;;;;16.26;72.13;100764.00;698410;28;22440;-62
2022/10/25 00:35:07;;;;;;;693.78;637.30;;;;;;;16.26;71.89;100762.09;698552;28;22399;-62
2022/10/25 00:35:28;;;;;;;714.25;657.22;;;;;;;16.25;72.00;100760.44;696864;28;67518;-62
2022/10/25 00:35:49;;;;;;;716.78;659.70;;;;;;;16.26;72.01;100761.28;698585;28;23531;-62
2022/10/25 00:36:12;;;;;;;703.22;646.50;;;;;;;16.25;72.01;100762.31;698605;28;21542;-62
2022/10/25 00:36:33;;;;;;;736.92;679.45;;;;;;;16.25;71.90;100759.59;696857;28;69432;-62
2022/10/25 00:36:55;;;;;;;719.35;662.17;;;;;;;16.24;72.19;100757.91;697714;28;22468;-63
2022/10/25 00:37:17;;;;;;;726.13;668.58;;;;;;;16.25;71.87;100756.88;697295;28;45229;-63
2022/10/25 00:37:38;;;;;;;718.75;661.50;;;;;;;16.24;72.19;100758.78;697489;28;46384;-62
2022/10/25 00:38:02;;;;;;;720.92;663.80;;;;;;;16.25;72.07;100754.16;698480;28;15232;-63
2022/10/25 00:38:23;;;;;;;722.42;665.22;;;;;;;16.24;71.94;100758.78;698118;28;23461;-63
2022/10/25 00:38:46;;;;;;;730.60;673.20;;;;;;;16.25;71.94;100759.59;698046;28;21497;-62
2022/10/25 00:39:07;;;;;;;712.70;655.83;;;;;;;16.25;72.07;100760.44;696776;28;69402;-63
2022/10/25 00:39:28;;;;;;;724.42;667.17;;;;;;;16.25;71.99;100754.16;698575;28;21414;-62
2022/10/25 00:39:49;;;;;;;703.75;647.08;;;;;;;16.23;72.06;100754.34;698491;28;22404;-62
2022/10/25 00:40:12;;;;;;;721.03;664.00;;;;;;;16.23;72.03;100758.97;698500;28;23489;-63
2022/10/25 00:40:34;;;;;;;700.40;643.80;;;;;;;16.23;72.22;100759.81;696768;28;70415;-62
2022/10/25 00:40:55;;;;;;;716.30;659.33;;;;;;;16.23;72.32;100757.09;697740;28;44387;-63
2022/10/25 00:41:21;;;;;;;718.53;661.38;;;;;;;16.23;72.24;100756.25;698214;28;22499;-62
2022/10/25 00:41:43;;;;;;;695.05;638.47;;;;;;;16.21;72.38;100751.84;693521;28;161016;-62
2022/10/25 00:42:05;;;;;;;709.70;652.95;;;;;;;16.23;72.21;100754.34;696896;28;67461;-63
2022/10/25 00:42:26;;;;;;;704.92;648.28;;;;;;;16.21;72.05;100751.03;698362;28;21521;-62
2022/10/25 00:42:47;;;;;;;700.17;643.67;;;;;;;16.23;72.12;100754.34;698605;28;22417;-63
2022/10/25 00:43:08;;;;;;;717.35;660.47;;;;;;;16.18;72.06;100743.28;698471;28;22379;-62
2022/10/25 00:43:36;;;;;;;681.55;625.47;;;;;;;16.24;72.18;100756.03;697111;28;44378;-62
2022/10/25 00:44:30;;;;;;;717.95;661.03;;;;;;;16.25;72.16;100751.41;694583;28;136465;-63
2022/10/25 00:44:54;;;;;;;722.58;665.45;;;;;;;16.25;72.16;100754.16;694397;28;137678;-62
2022/10/25 00:45:21;;;;;;;707.80;651.03;;;;;;;16.25;72.00;100752.25;695945;28;92209;-62
2022/10/25 00:45:42;;;;;;;712.78;655.83;;;;;;;16.25;72.30;100748.69;693731;28;161291;-63
2022/10/25 00:46:06;;;;;;;720.25;663.22;;;;;;;16.25;72.04;100754.16;697743;28;46426;-63
2022/10/25 00:46:31;;;;;;;706.05;649.22;;;;;;;16.25;71.97;100751.41;696822;28;67496;-62
2022/10/25 00:46:53;;;;;;;716.60;659.63;;;;;;;16.24;72.18;100753.31;695344;28;115029;-62
2022/10/25 00:47:26;;;;;;;714.90;657.60;;;;;;;16.25;71.90;100754.16;696676;28;67153;-62
2022/10/25 00:47:52;;;;;;;725.25;668.03;;;;;;;16.24;71.93;100757.91;694553;28;137665;-62
2022/10/25 00:48:15;;;;;;;700.35;643.72;;;;;;;16.25;71.83;100751.41;694455;28;136427;-62
2022/10/25 00:48:36;;;;;;;735.83;678.20;;;;;;;16.24;72.13;100758.78;695385;28;93133;-62
2022/10/25 00:49:00;;;;;;;697.20;640.70;;;;;;;16.23;71.91;100757.09;697737;28;46323;-63
2022/10/25 00:49:22;;;;;;;730.20;672.85;;;;;;;16.23;72.25;100757.09;698562;28;15784;-62
2022/10/25 00:49:44;;;;;;;705.28;648.55;;;;;;;16.23;72.24;100756.25;698686;28;22355;-63
2022/10/25 00:50:14;;;;;;;728.13;670.83;;;;;;;16.22;72.10;100758.13;696872;28;67439;-62
2022/10/25 00:50:44;;;;;;;736.75;679.22;;;;;;;16.22;72.13;100760.84;694311;28;138509;-62
2022/10/25 00:51:05;;;;;;;704.38;647.60;;;;;;;16.21;72.05;100765.47;694516;28;137935;-62
2022/10/25 00:51:31;;;;;;;711.30;654.28;;;;;;;16.21;71.86;100759.19;698306;28;22550;-62
2022/10/25 00:51:56;;;;;;;724.15;666.90;;;;;;;16.21;71.84;100761.94;694485;28;136337;-62
2022/10/25 00:52:17;;;;;;;729.70;672.40;;;;;;;16.21;72.00;100756.47;695716;28;91946;-62
2022/10/25 00:52:39;;;;;;;712.15;655.25;;;;;;;16.19;72.04;100756.69;698453;28;22530;-62
2022/10/25 00:53:06;;;;;;;717.92;660.85;;;;;;;16.19;71.76;100755.81;696820;28;69422;-63
2022/10/25 00:53:31;;;;;;;702.67;645.90;;;;;;;16.17;72.07;100752.50;693464;28;160573;-62
2022/10/25 00:53:52;;;;;;;733.05;675.60;;;;;;;16.18;72.04;100759.63;693883;28;158615;-63
2022/10/25 00:54:16;;;;;;;688.70;632.25;;;;;;;16.17;72.16;100758.78;698341;28;21544;-63
2022/10/25 00:54:42;;;;;;;732.17;674.80;;;;;;;16.16;72.06;100756.25;696885;28;68132;-62
2022/10/25 00:55:04;;;;;;;687.75;631.47;;;;;;;16.15;71.73;100755.44;694496;28;138208;-62
2022/10/25 00:55:26;;;;;;;730.13;672.78;;;;;;;16.15;72.16;100766.31;696738;28;69418;-63
2022/10/25 00:55:51;;;;;;;718.55;661.45;;;;;;;16.15;72.29;100754.59;697646;28;45214;-62
2022/10/25 00:56:16;;;;;;;701.17;644.58;;;;;;;16.15;72.17;100755.44;695810;28;92052;-63
2022/10/25 00:56:39;;;;;;;728.97;671.67;;;;;;;16.15;72.04;100758.16;694467;28;137882;-62
2022/10/25 00:57:04;;;;;;;704.08;647.47;;;;;;;16.15;72.01;100762.78;696311;28;69090;-62
2022/10/25 00:57:28;;;;;;;713.50;656.63;;;;;;;16.14;72.04;100764.63;695710;28;92244;-62
2022/10/25 00:57:52;;;;;;;685.38;629.13;;;;;;;16.15;72.13;100765.50;695185;28;113308;-63
2022/10/25 00:58:18;;;;;;;725.35;668.28;;;;;;;16.13;71.85;100760.25;695786;28;93009;-63
2022/10/25 00:58:40;;;;;;;707.35;650.58;;;;;;;16.14;71.91;100764.63;694840;28;115008;-63
2022/10/25 00:59:03;;;;;;;703.03;646.33;;;;;;;16.14;72.18;100761.91;697582;28;45175;-62
2022/10/25 00:59:26;;;;;;;731.08;673.67;;;;;;;16.15;72.11;100760.88;695898;28;92277;-62
2022/10/25 00:59:49;;;;;;;700.25;643.60;;;;;;;16.17;72.03;100752.50;696732;28;69396;-62
2022/10/25 01:00:10;;;;;;;718.25;661.15;;;;;;;16.17;71.94;100763.38;697616;28;47337;-62
2022/10/25 01:00:31;;;;;;;726.95;669.60;;;;;;;16.16;72.16;100764.44;697449;28;46347;-62
2022/10/25 01:00:52;;;;;;;720.17;663.08;;;;;;;16.17;71.96;100764.22;698076;28;23465;-62
2022/10/25 01:01:15;;;;;;;710.58;653.72;;;;;;;16.15;71.88;100762.78;697943;28;23478;-63
2022/10/25 01:01:37;;;;;;;712.13;655.25;;;;;;;16.17;71.79;100760.66;696702;28;69323;-63
2022/10/25 01:01:59;;;;;;;691.90;635.50;;;;;;;16.16;71.90;100764.44;697554;28;46936;-63
2022/10/25 01:02:21;;;;;;;733.13;675.72;;;;;;;16.15;71.82;100760.88;697472;28;44365;-62
2022/10/25 01:02:42;;;;;;;720.15;663.00;;;;;;;16.14;72.05;100764.63;697486;28;46340;-63
2022/10/25 01:03:05;;;;;;;739.17;681.63;;;;;;;16.13;71.78;100760.25;698291;28;21529;-62
2022/10/25 01:03:26;;;;;;;710.63;653.60;;;;;;;16.13;71.86;100763.00;696399;28;67309;-62
2022/10/25 01:03:49;;;;;;;717.42;660.35;;;;;;;16.11;71.96;100766.97;697833;28;21406;-63
2022/10/25 01:04:15;;;;;;;711.92;655.03;;;;;;;16.11;71.96;100750.63;696352;28;69323;-62
2022/10/25 01:04:37;;;;;;;704.72;647.92;;;;;;;16.11;72.03;100766.97;694061;28;138020;-63
2022/10/25 01:04:58;;;;;;;712.35;655.50;;;;;;;16.10;72.26;100766.13;696636;28;69302;-63
2022/10/25 01:05:19;;;;;;;722.25;665.13;;;;;;;16.10;71.99;100768.88;698321;28;21551;-62
2022/10/25 01:05:41;;;;;;;698.40;641.75;;;;;;;16.11;72.32;100761.50;698375;28;22333;-63
2022/10/25 01:06:07;;;;;;;707.38;650.58;;;;;;;16.10;72.21;100760.69;697456;28;44388;-62
2022/10/25 01:06:32;;;;;;;709.50;652.65;;;;;;;16.11;72.14;100759.66;694303;28;137332;-62
2022/10/25 01:06:53;;;;;;;712.05;655.08;;;;;;;16.11;72.27;100762.38;694873;28;113490;-63
2022/10/25 01:07:15;;;;;;;713.20;656.00;;;;;;;16.11;72.38;100754.19;698154;28;22392;-63
2022/10/25 01:07:36;;;;;;;718.35;661.28;;;;;;;16.11;72.38;100765.09;697485;28;46361;-63
2022/10/25 01:07:58;;;;;;;691.80;635.42;;;;;;;16.11;72.19;100761.50;698520;28;22402;-62
2022/10/25 01:08:20;;;;;;;713.53;656.47;;;;;;;16.11;72.23;100758.78;694589;28;46403;-62
2022/10/25 01:08:42;;;;;;;711.72;654.65;;;;;;;16.11;72.21;100756.06;694003;28;47617;-62
2022/10/25 01:09:05;;;;;;;712.88;656.03;;;;;;;16.11;72.30;100762.38;694735;28;44544;-62
2022/10/25 01:09:28;;;;;;;726.47;669.25;;;;;;;16.11;72.38;100764.25;696357;28;69420;-63
2022/10/25 01:09:50;;;;;;;685.83;629.55;;;;;;;16.12;72.16;100763.19;696528;28;70609;-62
2022/10/25 01:10:11;;;;;;;724.55;667.47;;;;;;;16.12;72.29;100753.13;697309;28;46086;-63
2022/10/25 01:10:32;;;;;;;736.05;678.63;;;;;;;16.11;72.29;100754.19;698177;28;21548;-63
2022/10/25 01:10:54;;;;;;;731.80;674.60;;;;;;;16.11;72.10;100756.06;698713;28;22387;-63
2022/10/25 01:11:15;;;;;;;724.75;667.53;;;;;;;16.10;72.08;100759.88;697367;28;46365;-63
2022/10/25 01:11:36;;;;;;;725.58;668.25;;;;;;;16.10;72.28;100751.69;698432;28;21518;-62
2022/10/25 01:11:58;;;;;;;699.65;642.97;;;;;;;16.09;72.34;100759.00;697608;28;46598;-62
2022/10/25 01:12:19;;;;;;;701.83;645.15;;;;;;;16.10;72.30;100759.88;698347;28;21516;-62
2022/10/25 01:12:41;;;;;;;711.30;654.28;;;;;;;16.09;72.24;100759.00;698276;28;22430;-62
2022/10/25 01:13:09;;;;;;;722.10;664.95;;;;;;;16.10;72.43;100759.88;697078;28;59190;-63
2022/10/25 01:13:30;;;;;;;704.20;647.47;;;;;;;16.09;72.19;100761.72;697958;28;21536;-62
2022/10/25 01:13:52;;;;;;;727.22;669.92;;;;;;;16.09;72.29;100756.28;697712;28;46350;-62
2022/10/25 01:14:16;;;;;;;721.88;664.72;;;;;;;16.08;72.47;100754.63;698234;28;23527;-62
2022/10/25 01:14:40;;;;;;;718.72;661.53;;;;;;;16.08;72.44;100751.03;695973;28;90339;-62
2022/10/25 01:15:01;;;;;;;707.28;650.50;;;;;;;16.07;72.28;100761.13;695811;28;93135;-62
2022/10/25 01:15:25;;;;;;;746.15;688.40;;;;;;;16.07;72.52;100758.38;697409;28;42551;-63
2022/10/25 01:15:54;;;;;;;687.33;631.03;;;;;;;16.06;72.46;100756.72;695812;28;90259;-63
2022/10/25 01:16:22;;;;;;;711.10;654.28;;;;;;;16.07;72.37;100757.56;694097;28;136205;-62
2022/10/25 01:16:47;;;;;;;706.53;649.72;;;;;;;16.06;72.51;100751.25;694056;28;137914;-62
2022/10/25 01:17:15;;;;;;;717.08;659.72;;;;;;;16.06;72.61;100747.72;694564;28;115266;-62
2022/10/25 01:17:44;;;;;;;704.70;647.80;;;;;;;16.07;72.53;100752.13;694319;28;138209;-62
2022/10/25 01:18:13;;;;;;;735.17;677.75;;;;;;;16.07;72.44;100752.13;694439;28;137912;-62
2022/10/25 01:18:42;;;;;;;685.58;629.17;;;;;;;16.07;72.79;100743.94;693830;28;136202;-63
2022/10/25 01:19:11;;;;;;;724.88;667.65;;;;;;;16.08;72.67;100743.72;694404;28;138041;-62
2022/10/25 01:19:50;;;;;;;704.13;647.42;;;;;;;16.07;72.27;100750.22;694377;28;136103;-62
2022/10/25 01:20:39;;;;;;;715.65;658.70;;;;;;;16.08;72.55;100749.19;694390;28;138295;-62
2022/10/25 01:21:21;;;;;;;715.78;658.83;;;;;;;16.08;72.51;100749.19;693635;28;160432;-63
2022/10/25 01:21:45;;;;;;;701.78;645.05;;;;;;;16.09;72.37;100750.00;694339;28;136001;-62
2022/10/25 01:22:09;;;;;;;731.83;674.45;;;;;;;16.08;72.30;100743.72;696813;28;67490;-63
2022/10/25 01:22:36;;;;;;;701.10;644.47;;;;;;;16.07;72.41;100747.50;695864;28;92197;-63
2022/10/25 01:23:01;;;;;;;702.40;645.78;;;;;;;16.07;72.42;100744.78;694416;28;137889;-63
2022/10/25 01:23:38;;;;;;;729.80;672.60;;;;;;;16.06;72.56;100748.53;694137;28;136506;-62
2022/10/25 01:24:12;;;;;;;697.20;640.70;;;;;;;16.06;72.47;100742.25;693612;28;157158;-62
2022/10/25 01:24:57;;;;;;;721.65;664.47;;;;;;;16.08;72.52;100748.31;694239;28;137276;-62
2022/10/25 01:25:33;;;;;;;705.10;648.40;;;;;;;16.09;72.45;100745.38;693971;28;147118;-62
2022/10/25 01:26:11;;;;;;;708.17;651.38;;;;;;;16.09;72.35;100750.84;694412;28;136022;-62
2022/10/25 01:26:52;;;;;;;702.63;645.75;;;;;;;16.10;72.88;100738.06;693917;28;137861;-63
2022/10/25 01:27:43;;;;;;;722.97;665.38;;;;;;;16.11;72.52;100740.59;692987;28;160378;-62
2022/10/25 01:28:08;;;;;;;713.55;656.53;;;;;;;16.13;72.59;100743.09;694367;28;138123;-62
2022/10/25 01:28:33;;;;;;;742.00;684.30;;;;;;;16.11;72.44;100751.47;694547;28;114801;-62
2022/10/25 01:29:10;;;;;;;694.95;638.40;;;;;;;16.12;72.23;100744.13;695158;28;114678;-62
2022/10/25 01:30:02;;;;;;;727.92;670.60;;;;;;;16.11;72.42;100742.44;694268;28;137699;-62
2022/10/25 01:30:42;;;;;;;740.00;682.33;;;;;;;16.10;72.19;100744.34;688270;28;62560;-63
2022/10/25 01:31:18;;;;;;;731.65;674.35;;;;;;;16.10;72.42;100746.25;691477;28;138366;-63
2022/10/25 01:31:43;;;;;;;700.95;644.17;;;;;;;16.11;72.27;100745.16;691332;28;137766;-63
2022/10/25 01:32:07;;;;;;;707.25;650.53;;;;;;;16.10;72.49;100738.91;692311;28;115122;-62
2022/10/25 01:32:35;;;;;;;692.20;635.72;;;;;;;16.11;72.31;100756.06;692372;28;115268;-62
2022/10/25 01:33:07;;;;;;;728.17;670.88;;;;;;;16.11;72.46;100754.19;691667;28;137995;-62
2022/10/25 01:33:36;;;;;;;711.05;654.15;;;;;;;16.10;72.28;100744.34;696583;28;61526;-63
2022/10/25 01:34:01;;;;;;;728.28;671.05;;;;;;;16.11;72.17;100748.75;695063;28;112114;-63
2022/10/25 01:34:27;;;;;;;740.08;682.50;;;;;;;16.11;72.34;100747.91;695636;28;92234;-62
2022/10/25 01:34:52;;;;;;;705.75;648.92;;;;;;;16.14;72.36;100752.91;694219;28;136418;-63
2022/10/25 01:35:18;;;;;;;734.50;677.10;;;;;;;16.15;72.08;100751.88;694800;28;114654;-62
2022/10/25 01:35:43;;;;;;;719.33;662.22;;;;;;;16.16;72.29;100750.81;691377;28;134856;-62
2022/10/25 01:36:11;;;;;;;704.33;647.75;;;;;;;16.15;72.29;100751.88;695705;28;92308;-62
2022/10/25 01:36:41;;;;;;;701.83;645.17;;;;;;;16.14;72.41;100753.75;694080;28;137588;-63
2022/10/25 01:37:06;;;;;;;711.20;654.20;;;;;;;16.14;72.21;100748.28;693555;28;137917;-62
2022/10/25 01:37:32;;;;;;;695.20;638.65;;;;;;;16.15;71.92;100749.97;694645;28;115157;-63
2022/10/25 01:38:17;;;;;;;704.78;647.95;;;;;;;16.14;72.26;100742.84;694286;28;138025;-62
2022/10/25 01:38:43;;;;;;;724.95;667.58;;;;;;;16.14;72.08;100747.47;688326;28;136291;-63
2022/10/25 01:39:09;;;;;;;689.13;632.80;;;;;;;16.14;71.96;100748.28;692443;28;115085;-63
2022/10/25 01:39:32;;;;;;;709.13;652.28;;;;;;;16.13;72.27;100749.38;691360;28;138105;-63
2022/10/25 01:40:04;;;;;;;687.35;631.03;;;;;;;16.14;72.47;100751.03;696801;28;61686;-62
2022/10/25 01:40:30;;;;;;;722.22;665.05;;;;;;;16.14;72.14;100748.28;693274;28;157304;-62
2022/10/25 01:40:58;;;;;;;716.20;659.20;;;;;;;16.16;72.17;100750.81;694187;28;136428;-63
2022/10/25 01:41:26;;;;;;;692.90;636.40;;;;;;;16.16;72.25;100748.09;693619;28;137893;-62
2022/10/25 01:42:02;;;;;;;703.15;646.35;;;;;;;16.15;72.15;100752.69;694033;28;138068;-62
2022/10/25 01:42:33;;;;;;;715.08;658.15;;;;;;;16.15;72.22;100752.69;696806;28;62522;-62
2022/10/25 01:43:00;;;;;;;705.40;648.60;;;;;;;16.15;72.04;100751.88;694103;28;136616;-62
2022/10/25 01:43:27;;;;;;;730.97;673.70;;;;;;;16.15;72.31;100754.59;693319;28;160171;-62
2022/10/25 01:44:00;;;;;;;683.85;627.55;;;;;;;16.15;72.12;100743.72;696236;28;157733;-62
2022/10/25 01:44:31;;;;;;;701.05;644.35;;;;;;;16.15;72.32;100746.44;696969;28;137547;-61
2022/10/25 01:44:57;;;;;;;718.92;661.72;;;;;;;16.16;72.12;100745.34;694264;28;135923;-62
2022/10/25 01:45:21;;;;;;;700.40;643.88;;;;;;;16.16;72.11;100743.50;694249;28;136399;-63
2022/10/25 01:45:51;;;;;;;700.47;643.75;;;;;;;16.16;72.11;100748.94;695782;28;92010;-62
2022/10/25 01:46:18;;;;;;;711.20;654.33;;;;;;;16.17;72.21;100745.16;695787;28;136101;-63
2022/10/25 01:46:43;;;;;;;717.05;659.95;;;;;;;16.17;72.25;100741.59;696740;28;136667;-63
2022/10/25 01:47:09;;;;;;;715.80;658.72;;;;;;;16.16;72.23;100740.75;697113;28;115072;-63
2022/10/25 01:47:35;;;;;;;702.67;645.95;;;;;;;16.18;72.12;100743.28;696948;28;136406;-62
2022/10/25 01:48:02;;;;;;;698.92;642.42;;;;;;;16.18;71.98;100744.09;697039;28;136424;-63
2022/10/25 01:48:26;;;;;;;702.17;645.60;;;;;;;16.18;71.88;100746.81;697306;28;125752;-63
2022/10/25 01:48:50;;;;;;;706.45;649.63;;;;;;;16.18;72.07;100749.56;698474;28;91934;-63
2022/10/25 01:49:14;;;;;;;688.65;632.35;;;;;;;16.18;72.06;100749.56;698651;28;90446;-63
2022/10/25 01:49:41;;;;;;;722.15;665.00;;;;;;;16.18;72.06;100746.81;698608;28;92383;-62
2022/10/25 01:50:06;;;;;;;711.60;654.78;;;;;;;16.16;72.13;100743.50;697087;28;138063;-61